Terminal Aerodrome Forecast
Issued by NWS

Home | Current Version | Previous Version | Text Only | Print | Product List | Glossary On
Versions: 1 2 3 4 5 6 7 8 9 10 11 12
000
FTUS42 TJSJ 201726
TAFNCM
TAF
TNCM 201726Z 2018/2118 08017KT P6SM VCSH SCT018 SCT020 SCT035
     FM202300 09011KT P6SM VCSH SCT018 SCT020 SCT022
     FM211300 09015KT P6SM VCTS SCT022CB SCT035 BKN090=

USA.gov is the U.S. government's official web portal to all federal, state and local government web resources and services.